Lakewood, Pennsylvania
Current Conditions -  °F | °C
As of 7:15 PM on Wednesday 26 Nov 2014 (Local Time) from KMSV Reporting Station
Overcast Overcast  
Wind Chill: 22°   Ceiling: 900
Heat Index: 30°   Visibility: 1.7mi
Dew Point: 28°   Wind: 9mph
Humidity: 93%   Direction: 340°NNW
Pressure: 29.88"   Gusts: NA
Location:  41.85°N, 75.38°W
Report Text: KMSV 270015Z AUTO 34008KT 1 3/4SM BKN009 OVC012 M01/M02 A2988 RMK AO1
Loading
Personal Weather Stations






























Interactive Weather Map New forecast layout! Learn more

10-Day Weather Forecast

Advertisements
Track Severe Weather on mobile